createdAt,value
2022-11-06T00:01:38.136Z,7.97
2022-11-06T00:04:05.904Z,8.38
2022-11-06T00:06:50.028Z,7.85
2022-11-06T00:09:20.776Z,8.73
2022-11-06T00:11:49.839Z,6.32
2022-11-06T00:14:18.204Z,7.47
2022-11-06T00:16:47.115Z,8.40
2022-11-06T00:19:17.536Z,7.78
2022-11-06T00:21:45.719Z,8.52
2022-11-06T00:24:15.396Z,8.80
2022-11-06T00:26:43.416Z,9.57
2022-11-06T00:29:14.901Z,10.60
2022-11-06T00:31:42.550Z,11.55
2022-11-06T00:34:10.980Z,8.10
2022-11-06T00:36:38.783Z,10.55
2022-11-06T00:39:06.666Z,9.63
2022-11-06T00:41:34.567Z,9.50
2022-11-06T00:44:03.013Z,7.82
2022-11-06T00:46:31.061Z,9.05
2022-11-06T00:48:58.914Z,8.73
2022-11-06T00:51:30.073Z,8.52
2022-11-06T00:53:59.640Z,8.43
2022-11-06T00:56:27.887Z,8.07
2022-11-06T00:58:56.605Z,8.95
2022-11-06T01:01:26.617Z,8.25
2022-11-06T01:03:59.448Z,7.60
2022-11-06T01:06:29.935Z,8.27
2022-11-06T01:08:57.959Z,8.77
2022-11-06T01:11:46.547Z,9.27
2022-11-06T01:14:19.519Z,7.10
2022-11-06T01:16:47.413Z,8.38
2022-11-06T01:19:17.543Z,7.72
2022-11-06T01:21:46.491Z,7.78
2022-11-06T01:24:19.814Z,7.00
2022-11-06T01:27:05.309Z,7.53
2022-11-06T01:29:38.501Z,6.93
2022-11-06T01:32:06.620Z,7.93
2022-11-06T01:34:34.313Z,7.55
2022-11-06T01:37:02.268Z,6.82
2022-11-06T01:39:29.957Z,7.00
2022-11-06T01:41:57.753Z,7.25
2022-11-06T01:44:52.577Z,6.55
2022-11-06T01:47:26.284Z,7.10
2022-11-06T01:49:57.588Z,6.82
2022-11-06T01:52:27.347Z,6.57
2022-11-06T01:54:59.172Z,6.20
2022-11-06T01:57:27.001Z,5.60
2022-11-06T01:59:55.610Z,5.03
2022-11-06T02:02:24.003Z,7.43
2022-11-06T02:04:51.749Z,6.50
2022-11-06T02:07:20.171Z,6.40
2022-11-06T02:09:48.503Z,6.95
2022-11-06T02:12:47.196Z,6.93
2022-11-06T02:16:05.396Z,7.13
2022-11-06T02:19:00.684Z,6.57
2022-11-06T02:21:58.588Z,7.25
2022-11-06T02:24:55.529Z,6.78
2022-11-06T02:27:27.371Z,7.43
2022-11-06T02:30:09.696Z,7.78
2022-11-06T02:32:46.040Z,7.95
2022-11-06T02:35:44.244Z,8.20
2022-11-06T02:38:23.950Z,8.90
2022-11-06T02:40:59.240Z,9.02
2022-11-06T02:43:33.452Z,9.00
2022-11-06T02:46:12.217Z,10.38
2022-11-06T02:48:46.014Z,10.40
2022-11-06T02:51:17.623Z,10.25
2022-11-06T02:53:47.820Z,10.38
2022-11-06T02:56:21.094Z,10.35
2022-11-06T02:58:55.972Z,11.10
2022-11-06T03:01:31.284Z,11.52
2022-11-06T03:04:04.495Z,10.30
2022-11-06T03:06:41.613Z,10.82
2022-11-06T03:09:16.082Z,11.15
2022-11-06T03:11:44.198Z,11.27
2022-11-06T03:14:31.853Z,10.30
2022-11-06T03:17:16.625Z,10.45
2022-11-06T03:19:58.132Z,10.20
2022-11-06T03:22:35.356Z,9.30
2022-11-06T03:25:15.719Z,11.13
2022-11-06T03:27:57.638Z,11.30
2022-11-06T03:30:25.304Z,11.35
2022-11-06T03:33:01.262Z,10.70
2022-11-06T03:35:40.960Z,10.85
2022-11-06T03:38:15.541Z,11.20
2022-11-06T03:40:48.726Z,10.93
2022-11-06T03:45:48.165Z,11.23
2022-11-06T03:48:23.522Z,11.73
2022-11-06T03:51:03.070Z,10.77
2022-11-06T03:53:41.760Z,11.85
2022-11-06T03:56:18.818Z,11.18
2022-11-06T03:58:48.253Z,11.23
2022-11-06T04:01:21.511Z,11.25
2022-11-06T04:04:12.082Z,10.65
2022-11-06T04:06:47.692Z,11.05
2022-11-06T04:09:32.032Z,11.55
2022-11-06T04:12:19.084Z,12.07
2022-11-06T04:14:53.664Z,12.32
2022-11-06T04:17:24.280Z,10.70
2022-11-06T04:19:58.478Z,12.00
2022-11-06T04:22:39.943Z,12.07
2022-11-06T04:25:40.473Z,11.48
2022-11-06T04:28:30.301Z,13.13
2022-11-06T04:31:27.742Z,11.65
2022-11-06T04:34:13.664Z,12.38
2022-11-06T04:37:14.768Z,12.15
2022-11-06T04:39:57.247Z,13.02
2022-11-06T04:42:44.423Z,13.00
2022-11-06T04:45:18.596Z,12.65
2022-11-06T04:47:46.930Z,12.80
2022-11-06T04:50:17.885Z,13.60
2022-11-06T04:52:47.872Z,12.93
2022-11-06T04:55:16.429Z,13.25
2022-11-06T04:57:44.472Z,12.95
2022-11-06T05:00:14.395Z,12.80
2022-11-06T05:02:42.416Z,12.77
2022-11-06T05:05:10.438Z,12.85
2022-11-06T05:07:38.295Z,12.73
2022-11-06T05:10:06.364Z,12.25
2022-11-06T05:12:37.157Z,12.35
2022-11-06T05:15:08.318Z,11.57
2022-11-06T05:17:36.892Z,11.65
2022-11-06T05:20:05.535Z,11.88
2022-11-06T05:22:48.476Z,11.60
2022-11-06T05:25:16.158Z,9.38
2022-11-06T05:27:46.737Z,6.55
2022-11-06T05:30:15.356Z,9.20
2022-11-06T05:32:43.328Z,9.40
2022-11-06T05:35:11.039Z,8.65
2022-11-06T05:37:38.803Z,6.75
2022-11-06T05:40:08.138Z,7.07
2022-11-06T05:42:38.895Z,7.45
2022-11-06T05:45:07.390Z,8.63
2022-11-06T05:47:35.849Z,7.75
2022-11-06T05:50:05.852Z,7.80
2022-11-06T05:52:38.506Z,7.25
2022-11-06T05:55:14.467Z,7.05
2022-11-06T05:57:45.010Z,7.35
2022-11-06T06:00:16.031Z,8.75
2022-11-06T06:02:44.495Z,8.63
2022-11-06T06:05:15.332Z,7.15
2022-11-06T06:07:43.239Z,7.63
2022-11-06T06:10:11.661Z,8.30
2022-11-06T06:12:40.083Z,8.48
2022-11-06T06:15:08.931Z,6.78
2022-11-06T06:17:36.912Z,6.97
2022-11-06T06:20:04.914Z,6.88
2022-11-06T06:22:32.971Z,7.80
2022-11-06T06:25:01.820Z,7.90
2022-11-06T06:27:31.852Z,8.40
2022-11-06T06:29:59.637Z,6.57
2022-11-06T06:32:27.360Z,6.53
2022-11-06T06:34:55.371Z,6.88
2022-11-06T06:37:23.190Z,6.80
2022-11-06T06:39:50.896Z,7.20
2022-11-06T06:42:18.771Z,7.13
2022-11-06T06:44:46.516Z,7.13
2022-11-06T06:47:18.300Z,6.97
2022-11-06T06:49:46.283Z,6.65
2022-11-06T06:52:15.053Z,7.22
2022-11-06T06:54:43.382Z,7.38
2022-11-06T06:57:11.355Z,6.60
2022-11-06T06:59:43.587Z,6.80
2022-11-06T07:02:11.967Z,7.13
2022-11-06T07:04:40.276Z,7.90
2022-11-06T07:07:08.776Z,7.35
2022-11-06T07:09:36.480Z,6.78
2022-11-06T07:12:04.918Z,7.82
2022-11-06T07:14:32.730Z,6.95
2022-11-06T07:17:00.493Z,7.65
2022-11-06T07:19:29.156Z,7.22
2022-11-06T07:21:57.206Z,7.25
2022-11-06T07:24:25.051Z,7.65
2022-11-06T07:26:52.736Z,7.88
2022-11-06T07:29:20.545Z,8.23
2022-11-06T07:31:48.571Z,8.30
2022-11-06T07:34:16.379Z,7.95
2022-11-06T07:36:44.680Z,7.97
2022-11-06T07:39:12.556Z,7.15
2022-11-06T07:41:40.296Z,7.95
2022-11-06T07:44:08.051Z,7.18
2022-11-06T07:46:35.823Z,8.15
2022-11-06T07:49:03.731Z,7.20
2022-11-06T07:51:31.566Z,7.60
2022-11-06T07:53:59.370Z,8.00
2022-11-06T07:56:28.616Z,7.72
2022-11-06T07:58:58.209Z,7.72
2022-11-06T08:01:26.370Z,6.82
2022-11-06T08:03:54.286Z,6.82
2022-11-06T08:06:22.274Z,8.82
2022-11-06T08:08:52.739Z,8.55
2022-11-06T08:11:24.197Z,8.10
2022-11-06T08:13:51.935Z,7.60
2022-11-06T08:16:20.163Z,7.97
2022-11-06T08:18:48.515Z,7.93
2022-11-06T08:21:17.533Z,8.25
2022-11-06T08:23:46.646Z,7.72
2022-11-06T08:26:14.991Z,7.88
2022-11-06T08:28:43.668Z,8.27
2022-11-06T08:31:12.668Z,8.02
2022-11-06T08:33:43.025Z,8.32
2022-11-06T08:36:13.396Z,8.75
2022-11-06T08:38:43.042Z,8.25
2022-11-06T08:41:13.851Z,9.13
2022-11-06T08:43:41.889Z,9.35
2022-11-06T08:46:12.751Z,9.75
2022-11-06T08:48:42.698Z,9.23
2022-11-06T08:51:12.130Z,9.48
2022-11-06T08:53:42.668Z,10.60
2022-11-06T08:56:16.850Z,10.00
2022-11-06T08:58:51.584Z,10.10
2022-11-06T09:01:26.342Z,9.70
2022-11-06T09:03:55.581Z,10.13
2022-11-06T09:06:25.196Z,10.43
2022-11-06T09:08:55.335Z,10.63
2022-11-06T09:11:24.642Z,11.13
2022-11-06T09:13:55.103Z,10.13
2022-11-06T09:16:25.441Z,10.80
2022-11-06T09:18:58.363Z,10.30
2022-11-06T09:21:31.445Z,10.18
2022-11-06T09:24:01.359Z,10.30
2022-11-06T09:26:31.772Z,9.43
2022-11-06T09:29:02.224Z,7.82
2022-11-06T09:31:30.431Z,8.65
2022-11-06T09:33:59.223Z,9.82
2022-11-06T09:36:29.548Z,9.60
2022-11-06T09:38:57.851Z,9.88
2022-11-06T09:41:57.017Z,9.85
2022-11-06T09:44:59.005Z,8.02
2022-11-06T09:47:32.870Z,8.73
2022-11-06T09:50:04.366Z,7.78
2022-11-06T09:52:38.960Z,7.20
2022-11-06T09:55:15.713Z,8.30
2022-11-06T09:57:50.296Z,4.90
2022-11-06T10:00:20.917Z,7.75
2022-11-06T10:02:58.983Z,5.47
2022-11-06T10:05:34.135Z,8.00
2022-11-06T10:08:14.091Z,7.70
2022-11-06T10:11:00.049Z,7.68
2022-11-06T10:13:52.067Z,7.72
2022-11-06T10:16:43.186Z,8.43
2022-11-06T10:19:27.811Z,7.97
2022-11-06T10:22:20.414Z,8.57
2022-11-06T10:25:12.696Z,7.15
2022-11-06T10:27:45.163Z,5.80
2022-11-06T10:30:20.320Z,8.25
2022-11-06T10:33:17.623Z,7.45
2022-11-06T10:36:06.324Z,9.10
2022-11-06T10:38:41.215Z,8.75
2022-11-06T10:41:19.240Z,8.20
2022-11-06T10:44:12.226Z,8.20
2022-11-06T10:46:50.208Z,8.20
2022-11-06T10:49:40.477Z,7.82
2022-11-06T10:52:39.221Z,13.50
2022-11-06T10:55:42.390Z,12.90
2022-11-06T10:58:16.690Z,6.77
2022-11-06T11:00:44.887Z,7.13
2022-11-06T11:03:33.002Z,6.80
2022-11-06T11:06:02.543Z,7.85
2022-11-06T11:08:44.537Z,8.07
2022-11-06T11:11:26.388Z,8.07
2022-11-06T11:14:14.747Z,6.07
2022-11-06T11:16:47.579Z,7.70
2022-11-06T11:19:35.538Z,8.20
2022-11-06T11:22:21.178Z,7.45
2022-11-06T11:25:10.424Z,7.78
2022-11-06T11:27:48.434Z,8.32
2022-11-06T11:30:26.729Z,8.30
2022-11-06T11:32:56.420Z,8.68
2022-11-06T11:35:29.902Z,8.10
2022-11-06T11:38:17.527Z,9.98
2022-11-06T11:40:46.415Z,9.38
2022-11-06T11:43:26.711Z,8.43
2022-11-06T11:46:17.547Z,9.93
2022-11-06T11:48:56.925Z,9.95
2022-11-06T11:51:44.187Z,9.98
2022-11-06T11:54:27.171Z,8.50
2022-11-06T11:57:05.248Z,10.60
2022-11-06T11:59:57.311Z,19.95
2022-11-06T12:02:33.186Z,10.45
2022-11-06T12:05:15.935Z,10.07
2022-11-06T12:07:51.145Z,10.20
2022-11-06T12:10:37.822Z,7.93
2022-11-06T12:13:16.353Z,10.68
2022-11-06T12:16:03.482Z,10.55
2022-11-06T12:18:38.520Z,9.95
2022-11-06T12:21:13.761Z,10.55
2022-11-06T12:23:57.686Z,10.55
2022-11-06T12:26:50.431Z,10.05
2022-11-06T12:29:29.080Z,10.80
2022-11-06T12:32:31.470Z,10.02
2022-11-06T12:35:11.482Z,8.55
2022-11-06T12:38:06.117Z,8.85
2022-11-06T12:40:59.397Z,9.85
2022-11-06T12:43:52.044Z,10.15
2022-11-06T12:46:44.835Z,8.88
2022-11-06T12:49:45.708Z,8.68
2022-11-06T12:52:48.192Z,10.57
2022-11-06T12:55:39.750Z,9.35
2022-11-06T12:58:40.657Z,8.60
2022-11-06T13:01:35.724Z,9.02
2022-11-06T13:04:24.082Z,8.57
2022-11-06T13:07:19.169Z,8.27
2022-11-06T13:10:13.458Z,9.75
2022-11-06T13:13:15.261Z,8.25
2022-11-06T13:16:08.562Z,7.20
2022-11-06T13:19:03.715Z,8.25
2022-11-06T13:22:14.609Z,6.22
2022-11-06T13:25:06.339Z,7.60
2022-11-06T13:27:55.732Z,7.90
2022-11-06T13:30:25.973Z,9.05
2022-11-06T13:33:19.494Z,8.23
2022-11-06T13:35:57.514Z,9.00
2022-11-06T13:38:44.643Z,7.55
2022-11-06T13:41:26.419Z,7.00
2022-11-06T13:44:03.509Z,7.00
2022-11-06T13:46:51.251Z,8.23
2022-11-06T13:49:38.551Z,6.70
2022-11-06T13:52:28.613Z,8.23
2022-11-06T13:55:21.786Z,9.55
2022-11-06T13:58:15.020Z,7.72
2022-11-06T14:01:13.958Z,6.35
2022-11-06T14:04:17.036Z,9.30
2022-11-06T14:06:47.203Z,8.15
2022-11-06T14:09:21.458Z,7.47
2022-11-06T14:12:01.063Z,7.88
2022-11-06T14:14:32.409Z,5.63
2022-11-06T14:17:22.664Z,7.22
2022-11-06T14:20:07.239Z,8.18
2022-11-06T14:22:38.959Z,9.70
2022-11-06T14:25:38.029Z,7.88
2022-11-06T14:28:07.462Z,10.15
2022-11-06T14:34:02.139Z,7.65
2022-11-06T14:36:35.668Z,7.32
2022-11-06T14:39:10.220Z,7.47
2022-11-06T14:41:57.621Z,7.03
2022-11-06T14:44:31.884Z,10.07
2022-11-06T14:47:04.225Z,8.65
2022-11-06T14:49:47.607Z,7.03
2022-11-06T14:52:17.325Z,9.63
2022-11-06T14:55:05.902Z,8.75
2022-11-06T14:57:44.560Z,5.72
2022-11-06T15:00:32.384Z,8.95
2022-11-06T15:03:02.266Z,7.88
2022-11-06T15:05:31.710Z,6.93
2022-11-06T15:08:05.665Z,8.75
2022-11-06T15:10:50.898Z,8.20
2022-11-06T15:13:26.753Z,8.55
2022-11-06T15:16:12.482Z,8.90
2022-11-06T15:18:45.361Z,10.10
2022-11-06T15:21:22.191Z,7.22
2022-11-06T15:24:10.076Z,8.43
2022-11-06T15:26:45.649Z,10.10
2022-11-06T15:29:26.442Z,10.55
2022-11-06T15:32:03.744Z,7.78
2022-11-06T15:34:42.063Z,7.22
2022-11-06T15:37:20.534Z,9.65
2022-11-06T15:40:00.685Z,9.73
2022-11-06T15:42:36.579Z,9.88
2022-11-06T15:45:21.398Z,9.75
2022-11-06T15:48:02.182Z,10.95
2022-11-06T15:50:33.356Z,11.18
2022-11-06T15:53:21.445Z,9.93
2022-11-06T15:55:56.850Z,10.05
2022-11-06T15:58:34.896Z,10.57
2022-11-06T16:01:08.040Z,10.45
2022-11-06T16:03:55.152Z,10.73
2022-11-06T16:06:23.517Z,9.05
2022-11-06T16:08:53.080Z,9.77
2022-11-06T16:11:21.687Z,7.70
2022-11-06T16:13:50.500Z,13.15
2022-11-06T16:16:50.521Z,11.07
2022-11-06T16:19:39.372Z,8.45
2022-11-06T16:22:13.667Z,7.90
2022-11-06T16:24:54.435Z,9.50
2022-11-06T16:27:25.259Z,10.30
2022-11-06T16:29:57.563Z,9.02
2022-11-06T16:32:30.518Z,9.82
2022-11-06T16:35:00.656Z,9.48
2022-11-06T16:37:37.029Z,7.50
2022-11-06T16:40:27.175Z,6.25
2022-11-06T16:43:04.200Z,14.88
2022-11-06T16:45:33.335Z,9.38
2022-11-06T16:48:27.035Z,9.88
2022-11-06T16:50:57.736Z,6.15
2022-11-06T16:53:31.367Z,10.57
2022-11-06T16:56:06.612Z,8.70
2022-11-06T16:58:49.824Z,6.95
2022-11-06T17:01:20.959Z,8.68
2022-11-06T17:03:58.024Z,9.75
2022-11-06T17:06:31.007Z,10.77
2022-11-06T17:09:25.824Z,10.32
2022-11-06T17:11:55.723Z,9.52
2022-11-06T17:14:25.311Z,8.63
2022-11-06T17:16:56.936Z,11.82
2022-11-06T17:19:27.444Z,7.90
2022-11-06T17:21:56.726Z,11.27
2022-11-06T17:24:41.855Z,8.10
2022-11-06T17:27:10.248Z,9.13
2022-11-06T17:29:39.305Z,6.70
2022-11-06T17:32:10.970Z,7.78
2022-11-06T17:34:43.052Z,8.70
2022-11-06T17:37:13.193Z,10.23
2022-11-06T17:39:41.692Z,11.27
2022-11-06T17:42:11.486Z,10.13
2022-11-06T17:44:40.447Z,10.38
2022-11-06T17:47:08.903Z,11.40
2022-11-06T17:49:37.371Z,8.52
2022-11-06T17:52:06.964Z,11.15
2022-11-06T17:54:40.681Z,9.18
2022-11-06T17:57:10.128Z,8.05
2022-11-06T17:59:43.351Z,8.35
2022-11-06T18:02:25.453Z,4.90
2022-11-06T18:05:08.435Z,6.50
2022-11-06T18:07:37.877Z,9.23
2022-11-06T18:10:07.536Z,8.18
2022-11-06T18:12:37.992Z,8.18
2022-11-06T18:15:10.692Z,8.10
2022-11-06T18:17:40.690Z,8.25
2022-11-06T18:20:12.612Z,6.47
2022-11-06T18:22:42.773Z,9.88
2022-11-06T18:25:13.196Z,8.05
2022-11-06T18:27:42.241Z,8.82
2022-11-06T18:30:12.315Z,6.95
2022-11-06T18:32:43.105Z,10.30
2022-11-06T18:35:14.232Z,7.95
2022-11-06T18:37:44.009Z,10.05
2022-11-06T18:40:16.499Z,8.25
2022-11-06T18:42:46.863Z,11.45
2022-11-06T18:45:19.412Z,11.35
2022-11-06T18:47:48.901Z,9.25
2022-11-06T18:50:19.223Z,7.38
2022-11-06T18:52:57.826Z,11.27
2022-11-06T18:55:31.324Z,11.35
2022-11-06T18:58:00.422Z,7.20
2022-11-06T19:00:29.732Z,8.93
2022-11-06T19:03:01.424Z,10.35
2022-11-06T19:05:35.002Z,12.85
2022-11-06T19:08:04.521Z,11.20
2022-11-06T19:10:33.865Z,8.70
2022-11-06T19:13:02.745Z,11.82
2022-11-06T19:15:31.709Z,12.77
2022-11-06T19:18:04.145Z,11.43
2022-11-06T19:20:34.488Z,10.70
2022-11-06T19:23:03.586Z,10.93
2022-11-06T19:25:31.921Z,8.90
2022-11-06T19:28:00.087Z,12.15
2022-11-06T19:30:28.037Z,8.68
2022-11-06T19:32:57.627Z,11.27
2022-11-06T19:35:26.061Z,9.95
2022-11-06T19:37:53.940Z,7.65
2022-11-06T19:40:22.120Z,11.30
2022-11-06T19:42:50.520Z,10.30
2022-11-06T19:45:20.051Z,10.43
2022-11-06T19:47:50.385Z,9.07
2022-11-06T19:50:39.121Z,12.75
2022-11-06T19:53:09.883Z,12.65
2022-11-06T19:55:41.228Z,9.60
2022-11-06T19:58:13.935Z,9.63
2022-11-06T20:00:44.536Z,8.43
2022-11-06T20:03:13.408Z,6.82
2022-11-06T20:05:42.256Z,19.33
2022-11-06T20:08:12.441Z,11.23
2022-11-06T20:10:42.538Z,13.13
2022-11-06T20:13:16.451Z,11.73
2022-11-06T20:15:46.337Z,10.63
2022-11-06T20:18:15.412Z,11.55
2022-11-06T20:20:47.065Z,10.77
2022-11-06T20:23:16.798Z,11.80
2022-11-06T20:25:48.330Z,11.15
2022-11-06T20:28:19.776Z,11.30
2022-11-06T20:30:52.400Z,11.93
2022-11-06T20:33:24.372Z,11.38
2022-11-06T20:35:55.094Z,10.60
2022-11-06T20:38:27.644Z,11.95
2022-11-06T20:40:59.707Z,13.25
2022-11-06T20:43:32.355Z,11.32
2022-11-06T20:46:04.808Z,11.65
2022-11-06T20:48:37.038Z,10.20
2022-11-06T20:51:09.764Z,11.85
2022-11-06T20:53:44.989Z,12.45
2022-11-06T20:56:19.445Z,7.78
2022-11-06T20:58:50.644Z,11.55
2022-11-06T21:01:21.260Z,12.10
2022-11-06T21:03:54.868Z,10.88
2022-11-06T21:06:25.172Z,12.05
2022-11-06T21:08:54.144Z,12.27
2022-11-06T21:11:26.083Z,11.85
2022-11-06T21:13:56.735Z,11.70
2022-11-06T21:16:30.033Z,12.27
2022-11-06T21:19:02.466Z,12.00
2022-11-06T21:21:34.656Z,11.05
2022-11-06T21:24:05.351Z,11.90
2022-11-06T21:26:37.520Z,9.18
2022-11-06T21:29:07.030Z,10.52
2022-11-06T21:31:35.382Z,10.95
2022-11-06T21:34:07.458Z,11.18
2022-11-06T21:36:38.243Z,11.05
2022-11-06T21:39:12.666Z,8.27
2022-11-06T21:41:42.380Z,11.35
2022-11-06T21:44:15.633Z,10.43
2022-11-06T21:46:46.106Z,10.07
2022-11-06T21:49:15.353Z,9.80
2022-11-06T21:51:43.859Z,9.10
2022-11-06T21:54:27.603Z,11.38
2022-11-06T21:56:55.711Z,10.80
2022-11-06T21:59:26.588Z,10.57
2022-11-06T22:01:56.742Z,11.23
2022-11-06T22:04:25.708Z,9.55
2022-11-06T22:06:55.652Z,11.52
2022-11-06T22:09:26.130Z,10.27
2022-11-06T22:11:56.209Z,10.85
2022-11-06T22:14:25.743Z,11.07
2022-11-06T22:16:53.458Z,12.63
2022-11-06T22:19:23.262Z,10.95
2022-11-06T22:21:51.283Z,11.68
2022-11-06T22:24:19.018Z,12.18
2022-11-06T22:26:46.718Z,10.70
2022-11-06T22:29:15.124Z,10.95
2022-11-06T22:31:42.859Z,10.07
2022-11-06T22:34:12.030Z,10.90
2022-11-06T22:36:40.235Z,10.32
2022-11-06T22:39:09.157Z,9.77
2022-11-06T22:41:37.390Z,10.18
2022-11-06T22:44:06.399Z,10.88
2022-11-06T22:46:34.512Z,11.27
2022-11-06T22:49:02.812Z,10.85
2022-11-06T22:51:32.046Z,11.57
2022-11-06T22:54:00.990Z,11.75
2022-11-06T22:56:29.597Z,11.93
2022-11-06T22:59:00.056Z,12.07
2022-11-06T23:01:29.761Z,9.82
2022-11-06T23:04:01.071Z,11.77
2022-11-06T23:06:29.081Z,11.05
2022-11-06T23:08:59.815Z,13.30
2022-11-06T23:11:29.057Z,12.52
2022-11-06T23:13:57.787Z,14.00
2022-11-06T23:16:41.911Z,12.95
2022-11-06T23:19:09.927Z,10.43
2022-11-06T23:21:37.803Z,13.07
2022-11-06T23:24:06.209Z,13.95
2022-11-06T23:26:34.049Z,13.55
2022-11-06T23:29:02.232Z,12.93
2022-11-06T23:31:30.430Z,12.93
2022-11-06T23:33:58.265Z,11.50
2022-11-06T23:36:26.058Z,13.48
2022-11-06T23:38:54.601Z,10.95
2022-11-06T23:41:37.781Z,11.48
2022-11-06T23:46:34.814Z,11.02
2022-11-06T23:49:02.521Z,11.32
2022-11-06T23:51:30.307Z,11.60
2022-11-06T23:53:58.009Z,7.97
2022-11-06T23:56:25.624Z,12.80
2022-11-06T23:58:53.263Z,8.68
